ADDS METAR Data INFO
IDs: Format: Raw Decoded Include TAF

Data at: 1901 UTC 21 Apr 2018

METAR for:LFST (Strasbourg/Entzheim, --, FR)
Text:LFST 211830Z AUTO 00000KT CAVOK 23/10 Q1016 NOSIG
Temperature: 23.0°C ( 73°F)
Dewpoint: 10.0°C ( 50°F) [RH = 44%]
Pressure (altimeter):30.00 inches Hg (1016.0 mb)
Winds:calm
Visibility:6 or more sm (10+ km)
Ceiling:ceiling and visibility are OK
Clouds:unknown

TAF for:LFST (Strasbourg/Entzheim, --, FR) issued at 1700 UTC 21 Apr 2018
Text:TAF LFST 211700Z 2118/2218 36005KT CAVOK
Forecast period:1800 to 2300 UTC 21 April 2018
Forecast type:FROM: standard forecast or significant change
Winds:from the N (360 degrees) at 6 MPH (5 knots; 2.6 m/s)
Visibility:6 or more sm (10+ km)
Clouds:missing
Weather:NSW (no significant weather)
Text:BECMG 2123/2201 VRB02KT
Forecast period:2300 UTC 21 April 2018 to 0700 UTC 22 April 2018
Forecast type:BECOMING: Conditions expected to become as follows by 0100 UTC 22 April 2018
Winds:variable direction winds at 2 MPH (2 knots; 1.0 m/s)
Visibility:6 or more sm (10+ km)
Clouds:missing
Weather:NSW (no significant weather)
Text:BECMG 2207/2209 19006KT
Forecast period:0700 to 1800 UTC 22 April 2018
Forecast type:BECOMING: Conditions expected to become as follows by 0900 UTC 22 April 2018
Winds:from the S (190 degrees) at 7 MPH (6 knots; 3.1 m/s)
Visibility:6 or more sm (10+ km)
Clouds:missing
Weather:NSW (no significant weather)